createdAt,value
2022-10-30T00:00:02.442Z,10.77
2022-10-30T00:02:29.073Z,10.73
2022-10-30T00:04:55.823Z,9.57
2022-10-30T00:07:22.546Z,9.57
2022-10-30T00:09:49.154Z,9.68
2022-10-30T00:12:15.765Z,10.45
2022-10-30T00:14:42.357Z,10.02
2022-10-30T00:17:08.953Z,10.23
2022-10-30T00:19:35.591Z,10.00
2022-10-30T00:24:29.127Z,8.52
2022-10-30T00:26:55.844Z,11.05
2022-10-30T00:29:25.134Z,10.95
2022-10-30T00:31:52.615Z,9.15
2022-10-30T00:34:20.038Z,9.55
2022-10-30T00:36:46.704Z,9.00
2022-10-30T00:39:16.031Z,10.68
2022-10-30T00:41:42.856Z,9.55
2022-10-30T00:44:32.326Z,10.80
2022-10-30T00:47:00.212Z,10.90
2022-10-30T00:49:26.862Z,10.85
2022-10-30T00:51:54.625Z,10.00
2022-10-30T00:54:22.246Z,11.70
2022-10-30T00:56:49.443Z,11.35
2022-10-30T00:59:18.742Z,11.90
2022-10-30T01:01:46.327Z,11.00
2022-10-30T01:04:13.513Z,11.55
2022-10-30T01:06:42.145Z,11.70
2022-10-30T01:09:08.836Z,11.38
2022-10-30T01:11:35.517Z,9.55
2022-10-30T01:14:05.272Z,8.80
2022-10-30T01:16:56.518Z,10.27
2022-10-30T01:22:38.543Z,8.30
2022-10-30T01:25:33.118Z,8.93
2022-10-30T01:28:28.874Z,9.05
2022-10-30T01:31:17.880Z,9.43
2022-10-30T01:33:57.114Z,8.65
2022-10-30T01:36:32.761Z,8.68
2022-10-30T01:39:12.026Z,9.55
2022-10-30T01:41:38.669Z,8.98
2022-10-30T01:44:09.379Z,9.93
2022-10-30T01:46:49.335Z,8.75
2022-10-30T01:49:44.133Z,9.68
2022-10-30T01:55:11.571Z,9.45
2022-10-30T01:57:50.100Z,10.57
2022-10-30T02:00:20.495Z,9.73
2022-10-30T02:02:49.247Z,9.32
2022-10-30T02:05:26.302Z,10.18
2022-10-30T02:07:52.978Z,11.43
2022-10-30T02:10:22.120Z,10.65
2022-10-30T02:12:48.846Z,11.93
2022-10-30T02:15:15.922Z,11.30
2022-10-30T02:17:42.709Z,11.18
2022-10-30T02:20:19.516Z,9.98
2022-10-30T02:22:47.113Z,9.75
2022-10-30T02:25:14.284Z,11.30
2022-10-30T02:27:40.921Z,11.07
2022-10-30T02:30:08.488Z,10.35
2022-10-30T02:32:35.119Z,9.35
2022-10-30T02:35:01.813Z,9.77
2022-10-30T02:37:28.483Z,9.27
2022-10-30T02:39:55.125Z,9.18
2022-10-30T02:42:23.221Z,9.27
2022-10-30T02:44:49.965Z,9.35
2022-10-30T02:47:16.552Z,10.45
2022-10-30T02:49:43.140Z,10.55
2022-10-30T02:52:09.738Z,10.13
2022-10-30T02:54:36.582Z,10.00
2022-10-30T02:57:03.277Z,9.38
2022-10-30T02:59:30.199Z,9.02
2022-10-30T03:01:56.962Z,9.68
2022-10-30T03:04:23.632Z,9.15
2022-10-30T03:06:50.203Z,10.25
2022-10-30T03:09:16.879Z,11.07
2022-10-30T03:11:44.468Z,11.75
2022-10-30T03:14:11.508Z,12.50
2022-10-30T03:16:38.494Z,11.38
2022-10-30T03:19:05.435Z,12.73
2022-10-30T03:21:32.067Z,13.10
2022-10-30T03:23:59.031Z,11.18
2022-10-30T03:26:25.644Z,13.02
2022-10-30T03:28:52.243Z,12.50
2022-10-30T03:31:19.703Z,13.48
2022-10-30T03:33:46.613Z,14.70
2022-10-30T03:36:14.666Z,16.20
2022-10-30T03:38:41.681Z,13.95
2022-10-30T03:41:08.453Z,15.20
2022-10-30T03:43:35.206Z,14.07
2022-10-30T03:46:01.990Z,14.63
2022-10-30T03:48:29.666Z,16.17
2022-10-30T03:50:57.927Z,15.13
2022-10-30T03:53:26.299Z,14.77
2022-10-30T03:55:53.563Z,14.18
2022-10-30T03:58:20.135Z,14.45
2022-10-30T04:00:46.714Z,12.75
2022-10-30T04:03:13.304Z,14.00
2022-10-30T04:05:40.259Z,12.40
2022-10-30T04:08:12.052Z,12.40
2022-10-30T04:10:45.578Z,11.70
2022-10-30T04:13:13.496Z,11.88
2022-10-30T04:15:40.684Z,11.05
2022-10-30T04:18:07.772Z,11.25
2022-10-30T04:20:34.518Z,12.27
2022-10-30T04:23:03.520Z,11.90
2022-10-30T04:25:30.730Z,13.20
2022-10-30T04:27:57.693Z,12.32
2022-10-30T04:30:27.938Z,12.43
2022-10-30T04:32:56.616Z,13.00
2022-10-30T04:35:29.203Z,12.20
2022-10-30T04:38:01.664Z,13.00
2022-10-30T04:40:31.346Z,11.55
2022-10-30T04:42:58.514Z,11.98
2022-10-30T04:45:25.802Z,12.25
2022-10-30T04:47:52.938Z,12.70
2022-10-30T04:50:19.917Z,12.15
2022-10-30T04:52:46.541Z,12.57
2022-10-30T04:55:13.244Z,13.40
2022-10-30T04:57:39.889Z,13.77
2022-10-30T05:00:08.031Z,13.30
2022-10-30T05:02:36.774Z,14.20
2022-10-30T05:05:04.616Z,14.05
2022-10-30T05:07:31.215Z,13.45
2022-10-30T05:09:57.837Z,13.82
2022-10-30T05:12:24.435Z,12.60
2022-10-30T05:14:51.042Z,13.57
2022-10-30T05:17:17.701Z,13.88
2022-10-30T05:19:44.404Z,13.52
2022-10-30T05:22:11.010Z,14.60
2022-10-30T05:24:37.612Z,15.63
2022-10-30T05:27:04.231Z,14.30
2022-10-30T05:29:30.890Z,14.85
2022-10-30T05:31:57.479Z,14.20
2022-10-30T05:34:24.094Z,14.40
2022-10-30T05:36:50.723Z,15.05
2022-10-30T05:39:17.323Z,13.38
2022-10-30T05:41:43.925Z,14.18
2022-10-30T05:44:10.548Z,13.70
2022-10-30T05:46:37.231Z,13.85
2022-10-30T05:49:04.058Z,14.68
2022-10-30T05:51:30.698Z,15.25
2022-10-30T05:53:57.288Z,13.93
2022-10-30T05:56:24.019Z,13.30
2022-10-30T05:58:50.692Z,13.43
2022-10-30T06:01:17.593Z,12.85
2022-10-30T06:03:44.682Z,14.45
2022-10-30T06:06:11.275Z,13.20
2022-10-30T06:08:37.913Z,14.77
2022-10-30T06:11:04.511Z,13.88
2022-10-30T06:13:31.119Z,14.48
2022-10-30T06:15:57.737Z,13.85
2022-10-30T06:18:24.562Z,13.23
2022-10-30T06:20:51.226Z,14.40
2022-10-30T06:23:17.796Z,13.07
2022-10-30T06:25:46.738Z,12.70
2022-10-30T06:28:14.244Z,11.10
2022-10-30T06:30:40.799Z,13.00
2022-10-30T06:33:07.787Z,12.38
2022-10-30T06:35:34.522Z,13.48
2022-10-30T06:38:01.133Z,12.05
2022-10-30T06:40:29.955Z,13.30
2022-10-30T06:42:57.896Z,12.43
2022-10-30T06:45:25.060Z,12.63
2022-10-30T06:47:52.312Z,13.05
2022-10-30T06:50:20.907Z,13.32
2022-10-30T06:52:48.487Z,11.65
2022-10-30T06:55:15.437Z,11.65
2022-10-30T06:57:42.210Z,13.18
2022-10-30T07:00:09.742Z,13.45
2022-10-30T07:02:36.648Z,12.90
2022-10-30T07:05:03.434Z,12.30
2022-10-30T07:07:30.350Z,12.60
2022-10-30T07:09:57.055Z,12.00
2022-10-30T07:12:23.779Z,11.50
2022-10-30T07:14:50.405Z,12.25
2022-10-30T07:17:17.113Z,11.80
2022-10-30T07:19:43.902Z,12.45
2022-10-30T07:22:10.634Z,11.20
2022-10-30T07:24:37.416Z,12.45
2022-10-30T07:27:04.149Z,13.73
2022-10-30T07:29:30.787Z,13.13
2022-10-30T07:32:02.993Z,14.82
2022-10-30T07:34:30.467Z,13.68
2022-10-30T07:36:57.199Z,14.77
2022-10-30T07:39:23.900Z,13.55
2022-10-30T07:41:50.788Z,13.02
2022-10-30T07:44:17.909Z,12.60
2022-10-30T07:46:44.718Z,13.65
2022-10-30T07:49:11.620Z,13.35
2022-10-30T07:51:38.355Z,12.57
2022-10-30T07:54:05.162Z,13.32
2022-10-30T07:56:32.008Z,13.20
2022-10-30T07:58:58.686Z,15.40
2022-10-30T08:01:25.625Z,13.85
2022-10-30T08:03:52.515Z,13.88
2022-10-30T08:06:22.927Z,11.10
2022-10-30T08:08:53.034Z,12.13
2022-10-30T08:11:19.816Z,11.90
2022-10-30T08:13:46.819Z,10.98
2022-10-30T08:16:13.640Z,11.82
2022-10-30T08:18:42.700Z,13.18
2022-10-30T08:21:09.959Z,12.45
2022-10-30T08:23:39.393Z,12.63
2022-10-30T08:26:06.472Z,10.75
2022-10-30T08:28:33.417Z,19.85
2022-10-30T08:31:00.829Z,16.23
2022-10-30T08:33:27.633Z,14.77
2022-10-30T08:35:56.831Z,13.82
2022-10-30T08:38:23.935Z,16.40
2022-10-30T08:40:50.761Z,13.68
2022-10-30T08:43:18.052Z,47.90
2022-10-30T08:45:45.117Z,35.35
2022-10-30T08:48:14.270Z,17.77
2022-10-30T08:50:44.477Z,14.38
2022-10-30T08:53:13.192Z,15.32
2022-10-30T08:55:40.601Z,16.90
2022-10-30T08:58:09.240Z,16.63
2022-10-30T09:00:35.996Z,15.38
2022-10-30T09:03:03.449Z,14.77
2022-10-30T09:05:30.765Z,15.27
2022-10-30T09:07:59.267Z,13.85
2022-10-30T09:10:27.200Z,13.88
2022-10-30T09:12:56.118Z,13.05
2022-10-30T09:15:23.227Z,12.95
2022-10-30T09:17:59.309Z,13.07
2022-10-30T09:20:27.857Z,13.35
2022-10-30T09:22:55.160Z,14.13
2022-10-30T09:25:22.273Z,13.68
2022-10-30T09:27:49.265Z,12.05
2022-10-30T09:30:16.469Z,12.93
2022-10-30T09:32:43.414Z,13.82
2022-10-30T09:35:10.602Z,12.63
2022-10-30T09:37:38.407Z,12.43
2022-10-30T09:40:06.335Z,12.13
2022-10-30T09:42:47.334Z,11.63
2022-10-30T09:45:46.360Z,11.70
2022-10-30T09:48:41.268Z,10.55
2022-10-30T09:51:39.198Z,10.38
2022-10-30T09:54:05.993Z,9.77
2022-10-30T09:56:46.113Z,8.70
2022-10-30T09:59:32.716Z,9.23
2022-10-30T10:02:32.805Z,10.35
2022-10-30T10:05:07.519Z,9.70
2022-10-30T10:07:41.164Z,8.60
2022-10-30T10:10:18.484Z,9.80
2022-10-30T10:12:47.870Z,10.00
2022-10-30T10:15:22.860Z,9.65
2022-10-30T10:17:49.694Z,10.23
2022-10-30T10:20:43.992Z,9.02
2022-10-30T10:23:28.710Z,9.00
2022-10-30T10:25:58.834Z,9.02
2022-10-30T10:28:48.619Z,9.25
2022-10-30T10:31:44.573Z,7.82
2022-10-30T10:34:18.071Z,9.45
2022-10-30T10:37:03.661Z,9.43
2022-10-30T10:39:41.465Z,8.90
2022-10-30T10:42:35.697Z,8.40
2022-10-30T10:45:32.930Z,8.07
2022-10-30T10:48:25.095Z,9.13
2022-10-30T10:51:02.715Z,9.35
2022-10-30T10:54:09.951Z,8.75
2022-10-30T10:56:40.452Z,8.68
2022-10-30T10:59:15.150Z,8.43
2022-10-30T11:01:46.255Z,9.07
2022-10-30T11:04:24.787Z,9.43
2022-10-30T11:06:53.198Z,8.27
2022-10-30T11:09:24.614Z,8.65
2022-10-30T11:11:52.996Z,9.65
2022-10-30T11:14:22.864Z,8.32
2022-10-30T11:17:07.330Z,9.25
2022-10-30T11:19:35.834Z,8.85
2022-10-30T11:22:06.844Z,8.70
2022-10-30T11:24:34.977Z,9.07
2022-10-30T11:27:30.864Z,8.60
2022-10-30T11:29:59.301Z,9.02
2022-10-30T11:32:34.940Z,8.50
2022-10-30T11:35:07.902Z,9.13
2022-10-30T11:37:39.599Z,8.20
2022-10-30T11:40:08.361Z,9.10
2022-10-30T11:42:35.632Z,8.93
2022-10-30T11:45:03.068Z,9.25
2022-10-30T11:50:05.159Z,8.13
2022-10-30T11:52:37.116Z,8.27
2022-10-30T11:55:24.194Z,7.82
2022-10-30T11:57:53.294Z,8.13
2022-10-30T12:00:22.208Z,8.32
2022-10-30T12:02:51.636Z,8.38
2022-10-30T12:05:35.526Z,7.57
2022-10-30T12:08:08.657Z,8.18
2022-10-30T12:10:47.780Z,7.55
2022-10-30T12:13:16.804Z,8.93
2022-10-30T12:15:45.782Z,8.15
2022-10-30T12:21:00.036Z,7.32
2022-10-30T12:23:28.523Z,7.50
2022-10-30T12:25:58.320Z,7.90
2022-10-30T12:28:30.787Z,7.78
2022-10-30T12:31:08.882Z,7.93
2022-10-30T12:33:39.488Z,7.70
2022-10-30T12:36:28.175Z,8.13
2022-10-30T12:38:59.966Z,7.43
2022-10-30T12:41:47.086Z,6.97
2022-10-30T12:44:22.418Z,8.38
2022-10-30T12:47:02.495Z,8.00
2022-10-30T12:49:38.630Z,7.45
2022-10-30T12:52:40.544Z,7.72
2022-10-30T12:55:21.562Z,7.82
2022-10-30T12:58:11.654Z,7.55
2022-10-30T13:00:50.682Z,7.68
2022-10-30T13:03:22.974Z,7.85
2022-10-30T13:05:56.102Z,7.68
2022-10-30T13:08:31.019Z,7.70
2022-10-30T13:11:10.010Z,8.52
2022-10-30T13:13:39.823Z,8.05
2022-10-30T13:16:17.728Z,7.57
2022-10-30T13:18:44.537Z,7.97
2022-10-30T13:21:11.248Z,7.30
2022-10-30T13:24:01.660Z,8.45
2022-10-30T13:26:35.803Z,7.03
2022-10-30T13:29:21.581Z,7.80
2022-10-30T13:32:01.489Z,6.88
2022-10-30T13:34:37.007Z,7.15
2022-10-30T13:37:25.752Z,7.50
2022-10-30T13:40:22.054Z,6.95
2022-10-30T13:43:02.646Z,7.10
2022-10-30T13:45:44.167Z,7.10
2022-10-30T13:48:34.588Z,8.25
2022-10-30T13:51:18.492Z,6.80
2022-10-30T13:53:46.883Z,8.05
2022-10-30T13:56:17.407Z,8.70
2022-10-30T13:58:49.206Z,8.40
2022-10-30T14:01:32.179Z,8.02
2022-10-30T14:04:21.259Z,7.25
2022-10-30T14:06:52.440Z,6.85
2022-10-30T14:09:43.510Z,7.40
2022-10-30T14:12:48.094Z,7.60
2022-10-30T14:18:13.865Z,7.22
2022-10-30T14:20:50.731Z,7.65
2022-10-30T14:23:23.504Z,6.80
2022-10-30T14:26:02.421Z,7.05
2022-10-30T14:28:38.531Z,8.05
2022-10-30T14:31:13.820Z,7.30
2022-10-30T14:33:40.752Z,6.90
2022-10-30T14:36:33.453Z,6.85
2022-10-30T14:39:09.279Z,6.85
2022-10-30T14:41:54.698Z,6.55
2022-10-30T14:44:31.384Z,7.03
2022-10-30T14:47:35.408Z,7.50
2022-10-30T14:50:10.862Z,7.47
2022-10-30T14:52:52.232Z,6.80
2022-10-30T14:55:40.421Z,6.88
2022-10-30T14:58:19.934Z,6.72
2022-10-30T15:00:46.675Z,6.75
2022-10-30T15:03:16.253Z,6.43
2022-10-30T15:05:49.009Z,7.50
2022-10-30T15:08:25.574Z,7.20
2022-10-30T15:11:17.829Z,6.60
2022-10-30T15:13:47.206Z,6.90
2022-10-30T15:16:16.333Z,7.97
2022-10-30T15:19:01.953Z,7.55
2022-10-30T15:21:33.053Z,7.40
2022-10-30T15:24:01.194Z,6.47
2022-10-30T15:26:35.664Z,7.00
2022-10-30T15:29:02.997Z,7.90
2022-10-30T15:31:29.993Z,6.82
2022-10-30T15:34:00.128Z,7.25
2022-10-30T15:36:31.189Z,6.90
2022-10-30T15:39:11.695Z,7.32
2022-10-30T15:41:53.941Z,8.15
2022-10-30T15:44:28.991Z,7.60
2022-10-30T15:46:57.024Z,7.65
2022-10-30T15:49:31.051Z,7.63
2022-10-30T15:51:58.518Z,7.03
2022-10-30T15:54:25.977Z,7.50
2022-10-30T15:57:31.416Z,7.32
2022-10-30T15:59:49.981Z,7.72
2022-10-30T16:02:22.562Z,7.82
2022-10-30T16:04:50.037Z,8.18
2022-10-30T16:07:25.075Z,7.30
2022-10-30T16:10:01.059Z,7.78
2022-10-30T16:12:29.753Z,7.78
2022-10-30T16:14:57.459Z,7.32
2022-10-30T16:17:25.497Z,7.20
2022-10-30T16:19:54.460Z,7.30
2022-10-30T16:22:27.329Z,8.55
2022-10-30T16:24:56.153Z,7.13
2022-10-30T16:27:24.513Z,7.82
2022-10-30T16:29:53.902Z,7.45
2022-10-30T16:32:22.797Z,7.13
2022-10-30T16:34:50.653Z,7.40
2022-10-30T16:37:43.963Z,7.78
2022-10-30T16:40:23.676Z,7.03
2022-10-30T16:43:01.433Z,6.90
2022-10-30T16:45:28.913Z,6.97
2022-10-30T16:48:08.355Z,6.45
2022-10-30T16:50:37.272Z,8.10
2022-10-30T16:53:11.412Z,6.60
2022-10-30T16:58:05.420Z,6.35
2022-10-30T17:00:36.194Z,7.65
2022-10-30T17:03:08.411Z,6.90
2022-10-30T17:05:37.111Z,7.07
2022-10-30T17:08:05.011Z,7.50
2022-10-30T17:10:36.939Z,7.10
2022-10-30T17:13:43.916Z,7.85
2022-10-30T17:16:31.313Z,7.32
2022-10-30T17:19:21.957Z,7.00
2022-10-30T17:21:51.313Z,7.40
2022-10-30T17:24:31.211Z,7.00
2022-10-30T17:27:00.357Z,7.50
2022-10-30T17:29:42.167Z,6.60
2022-10-30T17:32:28.797Z,6.93
2022-10-30T17:35:06.449Z,6.45
2022-10-30T17:37:33.123Z,6.88
2022-10-30T17:40:02.528Z,7.57
2022-10-30T17:42:29.134Z,8.43
2022-10-30T17:44:55.778Z,7.97
2022-10-30T17:47:23.731Z,8.82
2022-10-30T17:49:50.445Z,8.23
2022-10-30T17:52:19.480Z,7.82
2022-10-30T17:54:46.088Z,7.50
2022-10-30T17:57:14.875Z,7.70
2022-10-30T17:59:42.836Z,7.78
2022-10-30T18:02:15.615Z,7.82
2022-10-30T18:04:45.439Z,8.30
2022-10-30T18:07:12.614Z,8.07
2022-10-30T18:09:39.987Z,8.40
2022-10-30T18:12:07.875Z,7.03
2022-10-30T18:14:34.557Z,6.70
2022-10-30T18:17:01.344Z,7.90
2022-10-30T18:19:28.080Z,7.35
2022-10-30T18:21:57.593Z,7.35
2022-10-30T18:24:24.184Z,7.85
2022-10-30T18:26:50.845Z,6.93
2022-10-30T18:29:17.509Z,7.35
2022-10-30T18:31:44.367Z,7.53
2022-10-30T18:34:23.049Z,7.60
2022-10-30T18:36:50.234Z,7.80
2022-10-30T18:39:16.887Z,7.93
2022-10-30T18:41:45.088Z,7.18
2022-10-30T18:44:16.358Z,7.25
2022-10-30T18:46:43.745Z,7.38
2022-10-30T18:49:10.816Z,7.00
2022-10-30T18:51:37.993Z,6.63
2022-10-30T18:54:23.798Z,7.30
2022-10-30T18:56:50.363Z,6.38
2022-10-30T18:59:17.212Z,6.85
2022-10-30T19:01:43.943Z,6.60
2022-10-30T19:04:10.807Z,6.47
2022-10-30T19:06:38.935Z,6.57
2022-10-30T19:09:05.901Z,7.03
2022-10-30T19:11:32.997Z,7.05
2022-10-30T19:13:59.749Z,6.70
2022-10-30T19:16:26.791Z,6.72
2022-10-30T19:18:53.849Z,6.72
2022-10-30T19:21:23.259Z,7.32
2022-10-30T19:23:49.997Z,7.25
2022-10-30T19:26:17.487Z,6.50
2022-10-30T19:28:45.260Z,6.70
2022-10-30T19:31:17.277Z,7.53
2022-10-30T19:33:44.605Z,6.97
2022-10-30T19:36:36.029Z,7.30
2022-10-30T19:39:08.850Z,6.72
2022-10-30T19:41:36.848Z,6.97
2022-10-30T19:44:04.083Z,6.47
2022-10-30T19:46:30.770Z,7.65
2022-10-30T19:48:59.036Z,7.22
2022-10-30T19:51:27.389Z,7.13
2022-10-30T19:53:54.220Z,7.10
2022-10-30T19:56:21.420Z,7.38
2022-10-30T19:58:48.450Z,7.80
2022-10-30T20:01:15.892Z,6.80
2022-10-30T20:03:43.432Z,7.82
2022-10-30T20:06:13.008Z,7.70
2022-10-30T20:08:40.498Z,7.32
2022-10-30T20:11:07.686Z,8.65
2022-10-30T20:13:34.439Z,7.43
2022-10-30T20:16:04.996Z,7.68
2022-10-30T20:18:33.935Z,7.07
2022-10-30T20:21:03.229Z,7.95
2022-10-30T20:23:29.889Z,7.80
2022-10-30T20:26:01.858Z,7.50
2022-10-30T20:28:32.008Z,7.53
2022-10-30T20:30:58.760Z,7.40
2022-10-30T20:33:25.881Z,7.93
2022-10-30T20:35:54.805Z,7.45
2022-10-30T20:38:26.497Z,7.95
2022-10-30T20:40:53.812Z,7.63
2022-10-30T20:43:23.585Z,7.55
2022-10-30T20:45:50.314Z,7.40
2022-10-30T20:48:17.080Z,7.97
2022-10-30T20:50:47.702Z,7.85
2022-10-30T20:53:17.181Z,7.13
2022-10-30T20:55:44.505Z,8.57
2022-10-30T20:58:11.224Z,8.38
2022-10-30T21:00:37.962Z,8.32
2022-10-30T21:03:05.658Z,9.25
2022-10-30T21:05:49.087Z,8.25
2022-10-30T21:08:15.987Z,8.80
2022-10-30T21:10:43.081Z,8.80
2022-10-30T21:13:11.180Z,8.25
2022-10-30T21:15:42.940Z,8.32
2022-10-30T21:18:12.243Z,8.15
2022-10-30T21:20:40.945Z,7.72
2022-10-30T21:23:08.398Z,7.57
2022-10-30T21:25:35.827Z,7.97
2022-10-30T21:28:02.722Z,8.32
2022-10-30T21:30:29.711Z,8.20
2022-10-30T21:32:57.300Z,7.22
2022-10-30T21:35:24.113Z,7.75
2022-10-30T21:37:51.108Z,7.75
2022-10-30T21:40:20.213Z,7.63
2022-10-30T21:42:51.119Z,7.40
2022-10-30T21:45:18.277Z,7.88
2022-10-30T21:47:48.186Z,8.07
2022-10-30T21:50:14.844Z,8.90
2022-10-30T21:52:41.488Z,7.97
2022-10-30T21:55:08.567Z,7.68
2022-10-30T21:57:36.265Z,8.18
2022-10-30T22:00:06.292Z,7.90
2022-10-30T22:02:34.463Z,7.78
2022-10-30T22:05:01.329Z,7.30
2022-10-30T22:07:27.999Z,8.85
2022-10-30T22:09:54.833Z,7.13
2022-10-30T22:12:24.745Z,7.75
2022-10-30T22:14:51.390Z,7.40
2022-10-30T22:17:20.566Z,7.78
2022-10-30T22:19:47.433Z,7.85
2022-10-30T22:22:14.374Z,7.95
2022-10-30T22:24:41.022Z,7.25
2022-10-30T22:27:07.804Z,7.80
2022-10-30T22:29:34.699Z,7.70
2022-10-30T22:32:05.075Z,7.60
2022-10-30T22:34:31.680Z,8.40
2022-10-30T22:37:01.786Z,7.03
2022-10-30T22:39:28.569Z,7.90
2022-10-30T22:41:55.742Z,7.60
2022-10-30T22:44:24.164Z,8.07
2022-10-30T22:46:51.851Z,8.48
2022-10-30T22:49:18.464Z,8.40
2022-10-30T22:51:45.107Z,8.68
2022-10-30T22:54:14.623Z,7.82
2022-10-30T22:56:41.452Z,8.03
2022-10-30T22:59:11.640Z,7.13
2022-10-30T23:01:44.336Z,7.63
2022-10-30T23:04:12.783Z,7.70
2022-10-30T23:06:39.553Z,7.67
2022-10-30T23:09:11.071Z,8.52
2022-10-30T23:11:38.154Z,8.50
2022-10-30T23:14:05.257Z,8.67
2022-10-30T23:16:32.464Z,7.40
2022-10-30T23:19:00.650Z,8.13
2022-10-30T23:21:30.055Z,7.95
2022-10-30T23:23:57.429Z,7.53
2022-10-30T23:26:26.395Z,7.87
2022-10-30T23:28:54.862Z,7.10
2022-10-30T23:31:34.740Z,7.33
2022-10-30T23:34:05.263Z,6.90
2022-10-30T23:36:33.915Z,7.53
2022-10-30T23:39:02.717Z,6.73
2022-10-30T23:41:31.607Z,8.00
2022-10-30T23:44:00.941Z,7.10
2022-10-30T23:46:28.298Z,7.70
2022-10-30T23:48:55.324Z,7.20
2022-10-30T23:51:22.230Z,7.43
2022-10-30T23:53:48.998Z,7.30
2022-10-30T23:56:16.565Z,7.27
2022-10-30T23:58:48.261Z,8.33
